Time;durP1;ratioP1;P1;durP2;ratioP2;P2;SDS_P1;SDS_P2;PMS_P1;PMS_P2;Temp;Humidity;BMP_temperature;BMP_pressure;BME280_temperature;BME280_humidity;BME280_pressure;Samples;Min_cycle;Max_cycle;Signal;HPM_P1;HPM_P2
2023/08/07 00:01:15;;;;;;;3.53;1.83;;;12.90;99.90;;;;;;4997064;28;20951;-72
2023/08/07 00:03:41;;;;;;;2.40;2.10;;;12.90;99.90;;;;;;5000686;28;20424;-71
2023/08/07 00:06:08;;;;;;;2.80;1.80;;;12.80;99.90;;;;;;5005663;28;20920;-71
2023/08/07 00:08:36;;;;;;;1.73;1.63;;;12.80;99.90;;;;;;4999147;28;20478;-71
2023/08/07 00:11:07;;;;;;;2.43;1.90;;;12.80;99.90;;;;;;5001996;28;20826;-71
2023/08/07 00:13:35;;;;;;;1.77;1.67;;;12.80;99.90;;;;;;5008874;28;20454;-71
2023/08/07 00:16:01;;;;;;;4.37;2.00;;;12.80;99.90;;;;;;5009794;28;20483;-71
2023/08/07 00:18:29;;;;;;;4.30;1.70;;;12.80;99.90;;;;;;5007583;28;20862;-70
2023/08/07 00:20:55;;;;;;;2.10;1.90;;;12.80;99.90;;;;;;5004418;28;20797;-71
2023/08/07 00:23:22;;;;;;;1.97;1.87;;;12.80;99.90;;;;;;5011745;28;21152;-69
2023/08/07 00:25:49;;;;;;;3.63;1.93;;;12.70;99.90;;;;;;5004977;28;20498;-71
2023/08/07 00:28:15;;;;;;;3.63;1.83;;;12.80;99.90;;;;;;5002747;28;20545;-70
2023/08/07 00:30:43;;;;;;;2.23;1.90;;;12.70;99.90;;;;;;5012367;28;20522;-70
2023/08/07 00:33:11;;;;;;;5.40;2.60;;;12.70;99.90;;;;;;5004088;28;20501;-70
2023/08/07 00:35:37;;;;;;;3.67;2.23;;;12.70;99.90;;;;;;5012771;28;20486;-70
2023/08/07 00:38:04;;;;;;;5.57;1.70;;;12.70;99.90;;;;;;5003793;28;20590;-70
2023/08/07 00:40:37;;;;;;;1.90;1.80;;;12.70;99.90;;;;;;5004531;28;20504;-70
2023/08/07 00:43:04;;;;;;;22.70;2.27;;;12.70;99.90;;;;;;5012437;28;20429;-71
2023/08/07 00:45:33;;;;;;;1.80;1.70;;;12.60;99.90;;;;;;5012441;28;20447;-70
2023/08/07 00:48:02;;;;;;;7.53;1.60;;;12.60;99.90;;;;;;5012359;28;20446;-70
2023/08/07 00:50:29;;;;;;;1.60;1.50;;;12.60;99.90;;;;;;5010998;28;21057;-70
2023/08/07 00:52:56;;;;;;;2.03;1.60;;;12.60;99.90;;;;;;5009210;28;21159;-71
2023/08/07 00:55:23;;;;;;;4.60;1.90;;;12.50;99.90;;;;;;5006984;28;20487;-70
2023/08/07 00:57:50;;;;;;;1.83;1.73;;;12.50;99.90;;;;;;4999573;28;20430;-71
2023/08/07 01:00:18;;;;;;;2.70;1.80;;;12.50;99.90;;;;;;4998032;28;20458;-70
2023/08/07 01:02:45;;;;;;;3.40;1.87;;;12.50;99.90;;;;;;5008689;28;20456;-70
2023/08/07 01:05:13;;;;;;;3.47;1.50;;;12.40;99.90;;;;;;5004685;28;20443;-71
2023/08/07 01:07:40;;;;;;;1.67;1.50;;;12.40;99.90;;;;;;5012124;28;20455;-71
2023/08/07 01:10:08;;;;;;;2.60;1.70;;;12.40;99.90;;;;;;5008807;28;20478;-70
2023/08/07 01:12:42;;;;;;;1.60;1.50;;;12.40;99.90;;;;;;5007348;28;20462;-71
2023/08/07 01:15:15;;;;;;;1.50;1.40;;;12.40;99.90;;;;;;5005839;28;20487;-70
2023/08/07 01:17:44;;;;;;;1.70;1.60;;;12.40;99.90;;;;;;5008089;28;20454;-70
2023/08/07 01:20:13;;;;;;;2.60;1.70;;;12.40;99.90;;;;;;5011875;28;20883;-70
2023/08/07 01:22:41;;;;;;;1.60;1.50;;;12.40;99.90;;;;;;4996294;28;20478;-71
2023/08/07 01:25:09;;;;;;;2.00;1.40;;;12.40;99.90;;;;;;5005633;28;20443;-70
2023/08/07 01:27:37;;;;;;;3.00;1.53;;;12.30;99.90;;;;;;5004472;28;20458;-70
2023/08/07 01:30:15;;;;;;;1.60;1.50;;;12.30;99.90;;;;;;5002674;28;20554;-71
2023/08/07 01:32:48;;;;;;;2.27;1.70;;;12.30;99.90;;;;;;5004407;28;20521;-70
2023/08/07 01:35:16;;;;;;;1.70;1.60;;;12.30;99.90;;;;;;4996810;28;20493;-70
2023/08/07 01:37:46;;;;;;;2.00;1.63;;;12.30;99.90;;;;;;5011791;28;20505;-71
2023/08/07 01:40:14;;;;;;;3.87;2.00;;;12.30;99.90;;;;;;5005307;28;20475;-72
2023/08/07 01:42:41;;;;;;;2.40;2.00;;;12.30;99.90;;;;;;5007511;28;20474;-70
2023/08/07 01:45:08;;;;;;;2.43;1.80;;;12.20;99.90;;;;;;5011300;28;20446;-70
2023/08/07 01:47:35;;;;;;;3.33;2.03;;;12.20;99.90;;;;;;5011716;28;20500;-69
2023/08/07 01:50:02;;;;;;;2.47;2.03;;;12.30;99.90;;;;;;5000580;28;20526;-71
2023/08/07 01:52:28;;;;;;;4.30;2.10;;;12.30;99.90;;;;;;5008796;28;20451;-71
2023/08/07 01:54:56;;;;;;;7.03;2.30;;;12.20;99.90;;;;;;5004258;28;20439;-70
2023/08/07 01:57:23;;;;;;;8.23;2.50;;;12.30;99.90;;;;;;5005875;28;20486;-70
2023/08/07 01:59:50;;;;;;;5.73;2.43;;;12.30;99.90;;;;;;5002059;28;20475;-70
2023/08/07 02:02:16;;;;;;;8.20;4.33;;;12.30;99.90;;;;;;5007586;28;20999;-70
2023/08/07 02:04:43;;;;;;;4.90;2.40;;;12.30;99.90;;;;;;5003809;28;20507;-71
2023/08/07 02:07:09;;;;;;;2.80;2.17;;;12.30;99.90;;;;;;5006413;28;20438;-70
2023/08/07 02:09:36;;;;;;;5.13;2.40;;;12.30;99.90;;;;;;5000779;28;20524;-70
2023/08/07 02:12:05;;;;;;;5.77;2.43;;;12.30;99.90;;;;;;5011224;28;20454;-70
2023/08/07 02:14:32;;;;;;;4.33;2.23;;;12.30;99.90;;;;;;5011242;28;20512;-70
2023/08/07 02:16:58;;;;;;;15.00;2.83;;;12.30;99.90;;;;;;5010969;28;20486;-71
2023/08/07 02:19:25;;;;;;;3.53;2.50;;;12.30;99.90;;;;;;5008748;28;20505;-71
2023/08/07 02:21:52;;;;;;;4.23;2.50;;;12.30;99.90;;;;;;4998065;28;20456;-71
2023/08/07 02:24:19;;;;;;;7.80;2.60;;;12.30;99.90;;;;;;5010851;28;20519;-71
2023/08/07 02:26:46;;;;;;;4.13;2.70;;;12.30;99.90;;;;;;5001130;28;20428;-70
2023/08/07 02:29:14;;;;;;;9.23;2.70;;;12.30;99.90;;;;;;5002484;28;20470;-70
2023/08/07 02:31:41;;;;;;;3.40;2.60;;;12.30;99.90;;;;;;5011139;28;20458;-71
2023/08/07 02:34:08;;;;;;;4.57;2.43;;;12.30;99.90;;;;;;5002855;28;20502;-71
2023/08/07 02:36:34;;;;;;;2.53;2.33;;;12.30;99.90;;;;;;5008485;28;20521;-70
2023/08/07 02:39:01;;;;;;;3.17;1.90;;;12.30;99.90;;;;;;5000475;28;20532;-69
2023/08/07 02:41:27;;;;;;;4.40;2.50;;;12.30;99.90;;;;;;5011071;28;20450;-71
2023/08/07 02:43:54;;;;;;;2.30;2.10;;;12.30;99.90;;;;;;5010854;28;20454;-70
2023/08/07 02:46:22;;;;;;;2.70;2.50;;;12.20;99.90;;;;;;5002170;28;20549;-70
2023/08/07 02:48:49;;;;;;;3.37;2.03;;;12.20;99.90;;;;;;5010438;28;20466;-69
2023/08/07 02:51:15;;;;;;;1.90;1.80;;;12.20;99.90;;;;;;5000738;28;20446;-70
2023/08/07 02:53:42;;;;;;;3.20;1.97;;;12.20;99.90;;;;;;5006458;28;20517;-71
2023/08/07 02:56:09;;;;;;;2.57;2.10;;;12.20;99.90;;;;;;5006515;28;20539;-71
2023/08/07 02:58:35;;;;;;;2.33;2.00;;;12.20;99.90;;;;;;5003018;28;20533;-71
2023/08/07 03:01:05;;;;;;;2.60;1.93;;;12.20;99.90;;;;;;5006609;28;20496;-70
2023/08/07 03:03:33;;;;;;;4.13;2.40;;;12.20;99.90;;;;;;5014373;28;20550;-72
2023/08/07 03:05:59;;;;;;;7.33;1.93;;;12.20;99.90;;;;;;5014431;28;20870;-70
2023/08/07 03:08:26;;;;;;;7.43;2.40;;;12.20;99.90;;;;;;5014224;28;20474;-70
2023/08/07 03:10:55;;;;;;;2.57;2.20;;;12.20;99.90;;;;;;5006484;28;20455;-70
2023/08/07 03:13:22;;;;;;;2.33;2.13;;;12.10;99.90;;;;;;5007030;28;20890;-71
2023/08/07 03:15:50;;;;;;;3.20;2.00;;;12.20;99.90;;;;;;5006711;28;20489;-70
2023/08/07 03:18:16;;;;;;;5.43;2.33;;;12.20;99.90;;;;;;5011981;28;20547;-71
2023/08/07 03:20:44;;;;;;;2.10;1.90;;;12.20;99.90;;;;;;5005329;28;20455;-71
2023/08/07 03:23:11;;;;;;;2.60;2.27;;;12.10;99.90;;;;;;5007487;28;20485;-70
2023/08/07 03:25:38;;;;;;;4.03;2.20;;;12.10;99.90;;;;;;5006170;28;20455;-71
2023/08/07 03:28:04;;;;;;;2.83;2.13;;;12.20;99.90;;;;;;5007921;28;20450;-71
2023/08/07 03:30:31;;;;;;;3.90;2.67;;;12.10;99.90;;;;;;5013779;28;20513;-71
2023/08/07 03:32:58;;;;;;;2.30;2.10;;;12.10;99.90;;;;;;5013547;28;20488;-72
2023/08/07 03:35:24;;;;;;;4.13;2.17;;;12.20;99.90;;;;;;5013866;28;20452;-71
2023/08/07 03:37:52;;;;;;;5.13;2.03;;;12.20;99.90;;;;;;5006152;28;20483;-70
2023/08/07 03:40:19;;;;;;;6.23;2.20;;;12.10;99.90;;;;;;5009302;28;20865;-71
2023/08/07 03:42:46;;;;;;;4.60;2.00;;;12.10;99.90;;;;;;5006841;28;20452;-71
2023/08/07 03:45:12;;;;;;;4.50;2.47;;;12.20;99.90;;;;;;5012284;28;20450;-70
2023/08/07 03:47:39;;;;;;;5.37;2.87;;;12.20;99.90;;;;;;5013830;28;20447;-70
2023/08/07 03:50:06;;;;;;;4.80;2.27;;;12.10;99.90;;;;;;5007182;28;20540;-71
2023/08/07 03:52:33;;;;;;;5.57;2.60;;;12.10;99.90;;;;;;5013970;28;20581;-70
2023/08/07 03:55:01;;;;;;;3.97;2.40;;;12.20;99.90;;;;;;5001798;28;20499;-71
2023/08/07 03:57:28;;;;;;;3.10;2.60;;;12.20;99.90;;;;;;5008608;28;20486;-72
2023/08/07 03:59:55;;;;;;;8.90;3.07;;;12.20;99.90;;;;;;5002933;28;21021;-72
2023/08/07 04:02:21;;;;;;;7.63;2.53;;;12.10;99.90;;;;;;5013180;28;20500;-71
2023/08/07 04:04:48;;;;;;;5.20;3.20;;;12.10;99.90;;;;;;5006521;28;20943;-72
2023/08/07 04:07:15;;;;;;;4.57;3.20;;;12.10;99.90;;;;;;5001591;28;20451;-71
2023/08/07 04:09:41;;;;;;;7.23;2.97;;;12.10;99.90;;;;;;5001695;28;20475;-71
2023/08/07 04:12:10;;;;;;;6.30;3.10;;;12.10;99.90;;;;;;4988089;28;20510;-72
2023/08/07 04:14:36;;;;;;;4.67;3.10;;;12.10;99.90;;;;;;5006879;28;20828;-71
2023/08/07 04:17:04;;;;;;;5.53;3.27;;;12.10;99.90;;;;;;5013410;28;20494;-71
2023/08/07 04:19:30;;;;;;;3.07;2.77;;;12.20;99.90;;;;;;5013198;28;20477;-70
2023/08/07 04:21:57;;;;;;;5.50;3.47;;;12.20;99.90;;;;;;5005396;28;20455;-71
2023/08/07 04:24:23;;;;;;;4.13;2.97;;;12.10;99.90;;;;;;5005038;28;20454;-71
2023/08/07 04:26:50;;;;;;;6.63;3.30;;;12.20;99.90;;;;;;5000485;28;20553;-71
2023/08/07 04:29:18;;;;;;;8.80;3.40;;;12.20;99.90;;;;;;5010691;28;20481;-72
2023/08/07 04:31:45;;;;;;;6.23;3.07;;;12.20;99.90;;;;;;5013252;28;20442;-71
2023/08/07 04:34:12;;;;;;;6.83;2.70;;;12.20;99.90;;;;;;5013046;28;20446;-71
2023/08/07 04:36:39;;;;;;;3.70;2.97;;;12.10;99.90;;;;;;5012806;28;20490;-70
2023/08/07 04:39:05;;;;;;;3.50;2.40;;;12.20;99.90;;;;;;5012443;28;20470;-71
2023/08/07 04:41:32;;;;;;;6.10;3.00;;;12.20;99.90;;;;;;5009579;28;20505;-70
2023/08/07 04:43:59;;;;;;;3.97;2.70;;;12.20;99.90;;;;;;5012934;28;20528;-72
2023/08/07 04:46:27;;;;;;;2.80;2.50;;;12.10;99.90;;;;;;5012801;28;20516;-71
2023/08/07 04:48:54;;;;;;;5.83;2.93;;;12.20;99.90;;;;;;5012431;28;20470;-71
2023/08/07 04:51:20;;;;;;;6.63;3.00;;;12.10;99.90;;;;;;5012461;28;20468;-71
2023/08/07 04:53:50;;;;;;;4.00;3.27;;;12.20;99.90;;;;;;5012464;28;20884;-71
2023/08/07 04:56:17;;;;;;;5.47;3.40;;;12.20;99.90;;;;;;5007950;28;20497;-72
2023/08/07 04:58:44;;;;;;;3.30;2.90;;;12.20;99.90;;;;;;5010521;28;20478;-71
2023/08/07 05:01:10;;;;;;;6.27;3.90;;;12.10;99.90;;;;;;4996545;28;20455;-72
2023/08/07 05:03:38;;;;;;;4.40;3.80;;;12.20;99.90;;;;;;5012233;28;20508;-70
2023/08/07 05:06:05;;;;;;;5.57;3.40;;;12.20;99.90;;;;;;5012078;28;20500;-70
2023/08/07 05:08:32;;;;;;;4.30;3.90;;;12.20;99.90;;;;;;5011875;28;20470;-71
2023/08/07 05:10:59;;;;;;;4.33;3.93;;;12.20;99.90;;;;;;5011851;28;20926;-70
2023/08/07 05:13:25;;;;;;;8.90;3.80;;;12.20;99.90;;;;;;5003239;28;20462;-71
2023/08/07 05:15:52;;;;;;;5.47;3.37;;;12.20;99.90;;;;;;5001804;28;20493;-71
2023/08/07 05:18:19;;;;;;;4.13;3.70;;;12.20;99.90;;;;;;5010960;28;20513;-70
2023/08/07 05:20:47;;;;;;;6.17;2.90;;;12.30;99.90;;;;;;5010991;28;20454;-70
2023/08/07 05:23:14;;;;;;;6.80;3.30;;;12.30;99.90;;;;;;5003356;28;20461;-70
2023/08/07 05:25:40;;;;;;;6.10;3.20;;;12.30;99.90;;;;;;5011618;28;20446;-69
2023/08/07 05:28:07;;;;;;;6.20;3.37;;;12.30;99.90;;;;;;5009872;28;20450;-69
2023/08/07 05:30:34;;;;;;;5.90;3.40;;;12.40;99.90;;;;;;5011933;28;20462;-70
2023/08/07 05:33:00;;;;;;;8.00;3.57;;;12.40;99.90;;;;;;5012027;28;20455;-69
2023/08/07 05:35:27;;;;;;;3.90;3.23;;;12.40;99.90;;;;;;5011843;28;20508;-69
2023/08/07 05:37:55;;;;;;;5.50;3.80;;;12.40;99.90;;;;;;5011800;28;20490;-69
2023/08/07 05:40:21;;;;;;;4.03;3.40;;;12.40;99.90;;;;;;5011416;28;20544;-68
2023/08/07 05:42:48;;;;;;;3.83;3.40;;;12.40;99.90;;;;;;5009681;28;20447;-69
2023/08/07 05:45:15;;;;;;;4.50;3.20;;;12.40;99.90;;;;;;5007719;28;20872;-69
2023/08/07 05:47:41;;;;;;;3.80;3.40;;;12.40;99.90;;;;;;5011623;28;20512;-70
2023/08/07 05:50:09;;;;;;;4.60;2.90;;;12.50;99.90;;;;;;5005136;28;20480;-69
2023/08/07 05:52:36;;;;;;;6.03;3.17;;;12.50;99.90;;;;;;4997483;28;20455;-69
2023/08/07 05:55:04;;;;;;;3.90;3.50;;;12.50;99.90;;;;;;5011407;28;20926;-69
2023/08/07 05:57:31;;;;;;;8.00;3.03;;;12.50;99.90;;;;;;5011178;28;20478;-69
2023/08/07 05:59:57;;;;;;;4.63;3.30;;;12.60;99.90;;;;;;5004191;28;20502;-68
2023/08/07 06:02:24;;;;;;;3.00;2.70;;;12.60;99.90;;;;;;5002412;28;20454;-70
2023/08/07 06:04:52;;;;;;;5.33;3.07;;;12.60;99.90;;;;;;5011364;28;20928;-68
2023/08/07 06:07:19;;;;;;;6.37;3.20;;;12.60;99.90;;;;;;5007045;28;20463;-69
2023/08/07 06:09:45;;;;;;;5.23;3.00;;;12.70;99.90;;;;;;4986318;28;20483;-69
2023/08/07 06:12:13;;;;;;;7.33;3.20;;;12.70;99.90;;;;;;4999885;28;20451;-70
2023/08/07 06:14:40;;;;;;;3.57;2.50;;;12.80;99.90;;;;;;5011216;28;20474;-70
2023/08/07 06:17:07;;;;;;;4.37;2.43;;;12.80;99.90;;;;;;5002641;28;20845;-69
2023/08/07 06:19:33;;;;;;;4.40;2.40;;;12.90;99.90;;;;;;5010910;28;20524;-69
2023/08/07 06:22:00;;;;;;;4.30;2.63;;;13.00;99.90;;;;;;4994105;28;20526;-69
2023/08/07 06:24:27;;;;;;;6.73;3.20;;;13.00;99.90;;;;;;5009054;28;20996;-67
2023/08/07 06:26:53;;;;;;;2.30;2.10;;;13.10;99.90;;;;;;5011110;28;20417;-67
2023/08/07 06:29:21;;;;;;;6.97;2.50;;;13.10;99.90;;;;;;5010917;28;20462;-67
2023/08/07 06:31:48;;;;;;;4.80;2.70;;;13.20;99.90;;;;;;5012834;28;20417;-67
2023/08/07 06:34:15;;;;;;;2.30;2.10;;;13.20;99.90;;;;;;5015004;28;20428;-66
2023/08/07 06:36:41;;;;;;;2.60;2.40;;;13.20;99.90;;;;;;5007078;28;20464;-67
2023/08/07 06:39:08;;;;;;;5.47;2.47;;;13.20;99.90;;;;;;5007817;28;20474;-67
2023/08/07 06:41:36;;;;;;;3.10;2.27;;;13.10;99.90;;;;;;4999240;28;20446;-67
2023/08/07 06:44:03;;;;;;;2.17;2.07;;;13.10;99.90;;;;;;5014970;28;20424;-67
2023/08/07 06:46:31;;;;;;;2.40;1.97;;;13.10;99.90;;;;;;5014816;28;20531;-66
2023/08/07 06:48:57;;;;;;;6.30;2.40;;;13.10;99.90;;;;;;5004164;28;20761;-68
2023/08/07 06:51:24;;;;;;;5.40;2.50;;;13.10;99.90;;;;;;4999864;28;20452;-67
2023/08/07 06:53:51;;;;;;;2.40;2.20;;;13.20;99.90;;;;;;5014948;28;20501;-67
2023/08/07 06:56:17;;;;;;;3.03;2.43;;;13.20;99.90;;;;;;5009633;28;20469;-68
2023/08/07 06:58:44;;;;;;;4.10;2.30;;;13.20;99.90;;;;;;5014147;28;21025;-67
2023/08/07 07:01:11;;;;;;;2.47;2.23;;;13.30;99.90;;;;;;5006053;28;20478;-67
2023/08/07 07:03:39;;;;;;;2.57;2.37;;;13.30;99.90;;;;;;5014157;28;20462;-66
2023/08/07 07:06:06;;;;;;;5.50;2.70;;;13.30;99.90;;;;;;5014152;28;20425;-67
2023/08/07 07:08:32;;;;;;;4.03;2.20;;;13.30;99.90;;;;;;5014250;28;20437;-67
2023/08/07 07:10:59;;;;;;;5.97;2.30;;;13.40;99.90;;;;;;5005308;28;20515;-67
2023/08/07 07:13:26;;;;;;;3.90;2.53;;;13.50;99.90;;;;;;5011123;28;20901;-67
2023/08/07 07:15:56;;;;;;;5.80;2.50;;;13.50;99.90;;;;;;5006536;28;20912;-68
2023/08/07 07:18:22;;;;;;;2.40;2.20;;;13.50;99.90;;;;;;5009894;28;20471;-66
2023/08/07 07:20:57;;;;;;;13.73;2.57;;;13.50;99.90;;;;;;5014377;28;20799;-67
2023/08/07 07:23:23;;;;;;;3.17;2.87;;;13.50;99.90;;;;;;5006082;28;20536;-67
2023/08/07 07:25:50;;;;;;;5.33;2.80;;;13.60;99.90;;;;;;5014279;28;20496;-67
2023/08/07 07:28:17;;;;;;;6.90;2.90;;;13.60;99.90;;;;;;4986868;28;20480;-67
2023/08/07 07:30:43;;;;;;;3.80;2.70;;;13.50;99.90;;;;;;5012432;28;20500;-67
2023/08/07 07:33:10;;;;;;;5.37;2.50;;;13.50;99.90;;;;;;5013760;28;20895;-67
2023/08/07 07:35:39;;;;;;;3.93;2.80;;;13.60;99.90;;;;;;5012319;28;20520;-67
2023/08/07 07:38:07;;;;;;;4.27;2.93;;;13.60;99.90;;;;;;5013956;28;20452;-67
2023/08/07 07:40:35;;;;;;;8.33;3.00;;;13.70;99.90;;;;;;5013372;28;20460;-67
2023/08/07 07:43:01;;;;;;;8.90;3.50;;;13.70;99.90;;;;;;5006729;28;20429;-67
2023/08/07 07:45:29;;;;;;;3.47;3.17;;;13.70;99.90;;;;;;4992988;28;20496;-67
2023/08/07 07:47:55;;;;;;;4.60;2.97;;;13.70;99.90;;;;;;5008043;28;20800;-67
2023/08/07 07:50:22;;;;;;;10.27;3.30;;;13.70;99.90;;;;;;5004954;28;20487;-67
2023/08/07 07:52:49;;;;;;;5.97;3.00;;;13.70;99.90;;;;;;5013282;28;20867;-67
2023/08/07 07:55:17;;;;;;;9.90;3.60;;;13.70;99.90;;;;;;5013587;28;20450;-67
2023/08/07 07:57:44;;;;;;;7.50;3.43;;;13.70;99.90;;;;;;5007673;28;20462;-67
2023/08/07 08:00:13;;;;;;;7.60;3.30;;;13.80;99.90;;;;;;5001144;28;20450;-67
2023/08/07 08:02:42;;;;;;;10.77;3.67;;;13.80;99.90;;;;;;5013578;28;20457;-67
2023/08/07 08:05:10;;;;;;;12.10;3.20;;;13.70;99.90;;;;;;5013456;28;20439;-67
2023/08/07 08:07:38;;;;;;;9.90;3.40;;;13.70;99.90;;;;;;4993212;28;20825;-67
2023/08/07 08:10:06;;;;;;;9.13;3.47;;;13.60;99.90;;;;;;4989927;28;20565;-67
2023/08/07 08:12:34;;;;;;;5.63;3.17;;;13.80;99.90;;;;;;5011072;28;20421;-68
2023/08/07 08:15:00;;;;;;;7.70;3.40;;;13.80;99.90;;;;;;5013334;28;20504;-68
2023/08/07 08:17:27;;;;;;;9.23;3.93;;;13.90;99.90;;;;;;5012854;28;20909;-67
2023/08/07 08:19:54;;;;;;;5.50;3.40;;;14.00;99.90;;;;;;5013037;28;20449;-67
2023/08/07 08:22:20;;;;;;;8.27;3.40;;;14.10;99.90;;;;;;5004651;28;20465;-67
2023/08/07 08:24:48;;;;;;;7.67;3.00;;;14.00;99.90;;;;;;5011228;28;20440;-67
2023/08/07 08:27:14;;;;;;;4.40;3.33;;;14.00;99.90;;;;;;5005559;28;21069;-68
2023/08/07 08:29:43;;;;;;;7.20;2.80;;;14.00;99.90;;;;;;5012225;28;20960;-66
2023/08/07 08:32:10;;;;;;;6.90;3.23;;;14.10;99.90;;;;;;5013166;28;20417;-67
2023/08/07 08:34:37;;;;;;;8.70;2.90;;;14.00;99.90;;;;;;5013156;28;20802;-67
2023/08/07 08:37:05;;;;;;;6.33;3.20;;;13.90;99.90;;;;;;5006204;28;20886;-66
2023/08/07 08:39:32;;;;;;;6.00;2.63;;;13.90;99.90;;;;;;5012407;28;20498;-67
2023/08/07 08:42:00;;;;;;;4.57;2.47;;;13.90;99.90;;;;;;5007854;28;20450;-67
2023/08/07 08:44:30;;;;;;;3.00;2.70;;;13.90;99.90;;;;;;5012287;28;20842;-67
2023/08/07 08:47:01;;;;;;;3.87;2.60;;;13.80;99.90;;;;;;5012427;28;20443;-67
2023/08/07 08:49:33;;;;;;;3.20;2.77;;;13.90;99.90;;;;;;4990971;28;20449;-67
2023/08/07 08:52:00;;;;;;;8.10;2.80;;;14.00;99.90;;;;;;5012014;28;20424;-67
2023/08/07 08:54:27;;;;;;;6.67;2.80;;;14.00;99.90;;;;;;4994505;28;20830;-67
2023/08/07 08:56:54;;;;;;;3.73;2.57;;;14.00;99.90;;;;;;5011968;28;21087;-67
2023/08/07 08:59:21;;;;;;;3.00;2.60;;;14.10;99.90;;;;;;5008624;28;20560;-67
2023/08/07 09:01:51;;;;;;;3.97;2.53;;;14.10;99.90;;;;;;5004674;28;20501;-67
2023/08/07 09:04:20;;;;;;;2.75;2.55;;;14.00;99.90;;;;;;4997366;28;20454;-66
2023/08/07 09:06:47;;;;;;;3.20;2.70;;;14.00;99.90;;;;;;4995176;28;20694;-67
2023/08/07 09:09:15;;;;;;;3.93;2.27;;;14.00;99.90;;;;;;4999967;28;20445;-67
2023/08/07 09:11:43;;;;;;;3.10;2.23;;;14.00;99.90;;;;;;5011627;28;20922;-67
2023/08/07 09:14:11;;;;;;;3.43;2.40;;;14.00;99.90;;;;;;4986423;28;20959;-68
2023/08/07 09:16:38;;;;;;;6.00;2.77;;;13.90;99.90;;;;;;5006749;28;20454;-67
2023/08/07 09:19:06;;;;;;;3.63;1.90;;;13.90;99.90;;;;;;5001016;28;20517;-67
2023/08/07 09:21:35;;;;;;;6.37;2.50;;;13.90;99.90;;;;;;5003092;28;20947;-67
2023/08/07 09:24:02;;;;;;;2.50;2.30;;;13.80;99.90;;;;;;5011185;28;20454;-67
2023/08/07 09:26:29;;;;;;;6.60;2.30;;;13.80;99.90;;;;;;4999316;28;20433;-67
2023/08/07 09:28:55;;;;;;;5.13;2.40;;;13.80;99.90;;;;;;5003545;28;20487;-67
2023/08/07 09:31:26;;;;;;;2.73;2.30;;;13.90;99.90;;;;;;5011124;28;20421;-68
2023/08/07 09:33:52;;;;;;;2.00;1.90;;;13.90;99.90;;;;;;5003994;28;20420;-67
2023/08/07 09:36:19;;;;;;;2.60;2.40;;;13.90;99.90;;;;;;5002782;28;20514;-67
2023/08/07 09:38:51;;;;;;;5.00;2.20;;;14.00;99.90;;;;;;5010681;28;20490;-68
2023/08/07 09:41:19;;;;;;;3.27;2.20;;;14.10;99.90;;;;;;5011328;28;20475;-67
2023/08/07 09:43:45;;;;;;;2.23;2.00;;;14.10;99.90;;;;;;5009905;28;20935;-67
2023/08/07 09:46:12;;;;;;;2.07;1.90;;;14.30;99.90;;;;;;5006305;28;20417;-65
2023/08/07 09:48:43;;;;;;;2.60;2.30;;;14.40;99.90;;;;;;5010420;28;20444;-66
2023/08/07 09:51:11;;;;;;;1.97;1.73;;;14.50;99.90;;;;;;5011031;28;20433;-66
2023/08/07 09:53:38;;;;;;;2.67;2.17;;;14.50;99.90;;;;;;5010915;28;20429;-66
2023/08/07 09:56:07;;;;;;;2.87;2.00;;;14.50;99.90;;;;;;5010684;28;20421;-66
2023/08/07 09:58:34;;;;;;;2.33;2.03;;;14.70;99.90;;;;;;5010573;28;20548;-67
2023/08/07 10:01:02;;;;;;;1.80;1.70;;;14.80;99.90;;;;;;5000498;28;20446;-67
2023/08/07 10:03:28;;;;;;;2.90;1.83;;;14.80;99.90;;;;;;5010576;28;20616;-66
2023/08/07 10:05:55;;;;;;;4.27;1.77;;;14.80;99.90;;;;;;5010318;28;20989;-66
2023/08/07 10:08:23;;;;;;;2.00;1.90;;;14.70;99.90;;;;;;5010507;28;20444;-68
2023/08/07 10:10:49;;;;;;;1.83;1.70;;;14.80;99.90;;;;;;5008953;28;20940;-68
2023/08/07 10:13:18;;;;;;;2.10;1.90;;;14.90;99.90;;;;;;5009201;28;20479;-67
2023/08/07 10:15:47;;;;;;;2.07;1.87;;;14.70;99.90;;;;;;5005782;28;20505;-67
2023/08/07 10:18:13;;;;;;;2.20;2.10;;;14.80;99.90;;;;;;5004181;28;20468;-67
2023/08/07 10:20:42;;;;;;;4.43;1.97;;;14.90;99.90;;;;;;5007245;28;20432;-67
2023/08/07 10:23:10;;;;;;;1.97;1.83;;;14.80;99.90;;;;;;5004350;28;20553;-67
2023/08/07 10:25:40;;;;;;;2.93;2.30;;;14.70;99.90;;;;;;5010299;28;20979;-66
2023/08/07 10:28:11;;;;;;;2.07;1.97;;;14.90;99.90;;;;;;5010851;28;20454;-66
2023/08/07 10:30:41;;;;;;;3.00;2.07;;;15.10;99.90;;;;;;5010038;28;20428;-67
2023/08/07 10:33:09;;;;;;;3.07;2.23;;;14.90;99.90;;;;;;5010798;28;20529;-67
2023/08/07 10:35:36;;;;;;;2.33;1.87;;;15.00;99.90;;;;;;5010317;28;20428;-66
2023/08/07 10:38:08;;;;;;;2.20;2.00;;;14.90;99.90;;;;;;5010293;28;20442;-67
2023/08/07 10:40:35;;;;;;;2.47;2.27;;;14.90;99.90;;;;;;5010186;28;20936;-67
2023/08/07 10:43:14;;;;;;;2.43;2.00;;;15.20;99.90;;;;;;5010192;28;20428;-67
2023/08/07 10:45:42;;;;;;;2.00;1.90;;;15.80;99.90;;;;;;5010341;28;20417;-67
2023/08/07 10:48:11;;;;;;;3.50;1.97;;;16.00;99.90;;;;;;5010007;28;20417;-67
2023/08/07 10:50:50;;;;;;;2.50;1.80;;;16.20;99.90;;;;;;5009969;28;20500;-67
2023/08/07 10:53:21;;;;;;;1.90;1.80;;;16.20;99.90;;;;;;5010062;28;20849;-67
2023/08/07 10:55:48;;;;;;;4.07;2.30;;;16.10;99.90;;;;;;5010176;28;20442;-67
2023/08/07 10:58:25;;;;;;;4.07;2.07;;;16.20;99.90;;;;;;5010231;28;20497;-67
2023/08/07 11:01:09;;;;;;;2.90;2.03;;;16.10;99.90;;;;;;4999359;28;20449;-67
2023/08/07 11:03:36;;;;;;;2.17;2.07;;;16.30;99.90;;;;;;5010152;28;20425;-67
2023/08/07 11:06:03;;;;;;;2.37;2.17;;;16.30;99.90;;;;;;5010112;28;20447;-67
2023/08/07 11:08:30;;;;;;;2.57;2.37;;;16.30;99.90;;;;;;4989740;28;20469;-67
2023/08/07 11:11:04;;;;;;;2.80;2.50;;;16.30;99.90;;;;;;4990995;28;20425;-67
2023/08/07 11:13:31;;;;;;;2.50;2.30;;;16.20;99.90;;;;;;4999522;28;20946;-67
2023/08/07 11:16:00;;;;;;;3.20;2.20;;;16.30;99.90;;;;;;5004713;28;20511;-67
2023/08/07 11:18:27;;;;;;;2.70;1.90;;;16.30;99.90;;;;;;5008371;28;20560;-67
2023/08/07 11:20:55;;;;;;;2.03;1.93;;;16.30;99.90;;;;;;5010196;28;20501;-68
2023/08/07 11:23:24;;;;;;;1.90;1.80;;;16.40;99.90;;;;;;5008835;28;20457;-67
2023/08/07 11:25:51;;;;;;;3.20;1.83;;;16.50;99.90;;;;;;5013437;28;20454;-68
2023/08/07 11:28:19;;;;;;;1.87;1.77;;;16.70;99.90;;;;;;5013319;28;20528;-67
2023/08/07 11:30:46;;;;;;;2.10;1.90;;;16.50;99.90;;;;;;5010762;28;20942;-67
2023/08/07 11:33:14;;;;;;;2.70;1.80;;;16.60;99.90;;;;;;4995393;28;20428;-67
2023/08/07 11:35:42;;;;;;;2.60;1.87;;;16.70;99.90;;;;;;5005246;28;20463;-67
2023/08/07 11:38:09;;;;;;;1.97;1.77;;;16.70;99.90;;;;;;5013009;28;20416;-67
2023/08/07 11:40:36;;;;;;;2.50;2.10;;;16.80;99.90;;;;;;4999655;28;20464;-67
2023/08/07 11:43:02;;;;;;;3.97;2.00;;;16.90;99.90;;;;;;5012999;28;20996;-67
2023/08/07 11:45:29;;;;;;;3.10;1.60;;;16.70;99.90;;;;;;5013082;28;21059;-66
2023/08/07 11:47:57;;;;;;;5.13;2.00;;;16.60;99.90;;;;;;5006955;28;20960;-66
2023/08/07 11:50:25;;;;;;;4.40;2.10;;;16.40;99.90;;;;;;5003711;28;20516;-67
2023/08/07 11:52:52;;;;;;;9.50;2.30;;;16.40;99.90;;;;;;5012903;28;20447;-67
2023/08/07 11:55:19;;;;;;;4.30;2.27;;;16.50;99.90;;;;;;5010591;28;20934;-67
2023/08/07 11:57:47;;;;;;;7.07;2.30;;;16.70;99.90;;;;;;5011080;28;20454;-67
2023/08/07 12:00:14;;;;;;;5.93;2.27;;;16.80;99.90;;;;;;5003773;28;20506;-68
2023/08/07 12:02:44;;;;;;;4.40;2.53;;;16.90;99.90;;;;;;5010190;28;20503;-68
2023/08/07 12:05:12;;;;;;;6.80;2.17;;;16.90;99.90;;;;;;5012441;28;20450;-67
2023/08/07 12:07:41;;;;;;;7.63;2.47;;;17.00;99.90;;;;;;5005588;28;20831;-68
2023/08/07 12:10:09;;;;;;;5.00;2.20;;;17.20;99.90;;;;;;4979414;28;20520;-68
2023/08/07 12:12:37;;;;;;;2.53;2.10;;;17.10;99.90;;;;;;5006494;28;20460;-67
2023/08/07 12:15:05;;;;;;;4.57;2.10;;;17.10;99.90;;;;;;5012544;28;20492;-68
2023/08/07 12:17:32;;;;;;;2.10;1.90;;;17.10;99.90;;;;;;5012432;28;20537;-67
2023/08/07 12:19:59;;;;;;;3.50;1.97;;;17.20;99.90;;;;;;5011989;28;20497;-67
2023/08/07 12:22:28;;;;;;;4.23;2.20;;;17.20;99.90;;;;;;5004301;28;20450;-67
2023/08/07 12:24:56;;;;;;;3.10;2.10;;;17.40;99.90;;;;;;5003691;28;20481;-68
2023/08/07 12:27:23;;;;;;;8.63;2.20;;;17.60;99.90;;;;;;5012231;28;20497;-67
2023/08/07 12:29:49;;;;;;;2.00;1.80;;;17.80;99.90;;;;;;5011543;28;20466;-67
2023/08/07 12:32:16;;;;;;;2.27;2.07;;;17.90;99.90;;;;;;5004706;28;20509;-68
2023/08/07 12:34:43;;;;;;;8.80;2.60;;;18.20;99.90;;;;;;5012347;28;20450;-68
2023/08/07 12:37:09;;;;;;;2.93;2.53;;;18.70;99.90;;;;;;5011926;28;20442;-68
2023/08/07 12:39:36;;;;;;;8.73;2.63;;;19.00;99.90;;;;;;5005703;28;20502;-67
2023/08/07 12:42:05;;;;;;;3.50;2.80;;;18.90;99.90;;;;;;5010465;28;20495;-67
2023/08/07 12:44:31;;;;;;;12.07;2.93;;;18.90;99.90;;;;;;5007870;28;20817;-67
2023/08/07 12:46:59;;;;;;;7.30;2.70;;;19.00;99.90;;;;;;5011712;28;20950;-67